sensor_id;sensor_type;location;lat;lon;timestamp;P1;durP1;ratioP1;P2;durP2;ratioP2
21825;SDS011;11075;47.944;11.776;2022-09-12T00:01:37;3.17;;;2.37;;
21825;SDS011;11075;47.944;11.776;2022-09-12T00:04:03;2.90;;;2.40;;
21825;SDS011;11075;47.944;11.776;2022-09-12T00:06:31;4.00;;;2.53;;
21825;SDS011;11075;47.944;11.776;2022-09-12T00:09:01;3.33;;;2.50;;
21825;SDS011;11075;47.944;11.776;2022-09-12T00:11:35;5.70;;;2.40;;
21825;SDS011;11075;47.944;11.776;2022-09-12T00:14:07;8.70;;;2.30;;
21825;SDS011;11075;47.944;11.776;2022-09-12T00:16:36;4.33;;;2.50;;
21825;SDS011;11075;47.944;11.776;2022-09-12T00:19:03;5.90;;;2.80;;
21825;SDS011;11075;47.944;11.776;2022-09-12T00:21:32;4.47;;;2.50;;
21825;SDS011;11075;47.944;11.776;2022-09-12T00:24:00;14.93;;;2.70;;
21825;SDS011;11075;47.944;11.776;2022-09-12T00:26:27;2.60;;;2.30;;
21825;SDS011;11075;47.944;11.776;2022-09-12T00:28:53;12.47;;;2.93;;
21825;SDS011;11075;47.944;11.776;2022-09-12T00:31:21;3.27;;;2.30;;
21825;SDS011;11075;47.944;11.776;2022-09-12T00:33:50;3.57;;;2.53;;
21825;SDS011;11075;47.944;11.776;2022-09-12T00:36:18;5.10;;;2.40;;
21825;SDS011;11075;47.944;11.776;2022-09-12T00:38:47;3.17;;;2.23;;
21825;SDS011;11075;47.944;11.776;2022-09-12T00:41:22;4.17;;;2.10;;
21825;SDS011;11075;47.944;11.776;2022-09-12T00:43:53;3.57;;;2.40;;
21825;SDS011;11075;47.944;11.776;2022-09-12T00:46:41;4.70;;;2.23;;
21825;SDS011;11075;47.944;11.776;2022-09-12T00:49:21;2.80;;;2.50;;
21825;SDS011;11075;47.944;11.776;2022-09-12T00:52:03;7.00;;;2.60;;
21825;SDS011;11075;47.944;11.776;2022-09-12T00:54:31;3.00;;;2.30;;
21825;SDS011;11075;47.944;11.776;2022-09-12T00:57:03;4.03;;;2.53;;
21825;SDS011;11075;47.944;11.776;2022-09-12T00:59:39;5.87;;;2.57;;
21825;SDS011;11075;47.944;11.776;2022-09-12T01:02:09;2.80;;;2.50;;
21825;SDS011;11075;47.944;11.776;2022-09-12T01:04:37;3.73;;;2.53;;
21825;SDS011;11075;47.944;11.776;2022-09-12T01:07:06;3.27;;;2.23;;
21825;SDS011;11075;47.944;11.776;2022-09-12T01:09:34;2.43;;;2.17;;
21825;SDS011;11075;47.944;11.776;2022-09-12T01:12:03;2.50;;;2.30;;
21825;SDS011;11075;47.944;11.776;2022-09-12T01:14:31;4.37;;;1.87;;
21825;SDS011;11075;47.944;11.776;2022-09-12T01:16:58;5.10;;;2.40;;
21825;SDS011;11075;47.944;11.776;2022-09-12T01:20:13;5.07;;;2.17;;
21825;SDS011;11075;47.944;11.776;2022-09-12T01:22:27;3.97;;;1.87;;
21825;SDS011;11075;47.944;11.776;2022-09-12T01:31:21;7.77;;;3.67;;
21825;SDS011;11075;47.944;11.776;2022-09-12T01:33:52;4.03;;;2.77;;
21825;SDS011;11075;47.944;11.776;2022-09-12T01:39:32;5.80;;;2.03;;
21825;SDS011;11075;47.944;11.776;2022-09-12T01:42:19;9.27;;;1.93;;
21825;SDS011;11075;47.944;11.776;2022-09-12T01:45:10;4.17;;;2.20;;
21825;SDS011;11075;47.944;11.776;2022-09-12T01:47:49;3.47;;;2.10;;
21825;SDS011;11075;47.944;11.776;2022-09-12T01:50:29;2.07;;;1.80;;
21825;SDS011;11075;47.944;11.776;2022-09-12T01:53:01;3.37;;;2.20;;
21825;SDS011;11075;47.944;11.776;2022-09-12T01:55:34;2.27;;;1.87;;
21825;SDS011;11075;47.944;11.776;2022-09-12T01:58:14;3.97;;;2.17;;
21825;SDS011;11075;47.944;11.776;2022-09-12T02:00:59;3.37;;;2.00;;
21825;SDS011;11075;47.944;11.776;2022-09-12T02:03:31;3.83;;;2.17;;
21825;SDS011;11075;47.944;11.776;2022-09-12T02:06:08;10.50;;;2.40;;
21825;SDS011;11075;47.944;11.776;2022-09-12T02:08:43;17.60;;;2.53;;
21825;SDS011;11075;47.944;11.776;2022-09-12T02:11:13;3.60;;;1.50;;
21825;SDS011;11075;47.944;11.776;2022-09-12T02:13:46;7.63;;;1.60;;
21825;SDS011;11075;47.944;11.776;2022-09-12T02:16:31;3.07;;;1.70;;
21825;SDS011;11075;47.944;11.776;2022-09-12T02:19:04;4.83;;;1.93;;
21825;SDS011;11075;47.944;11.776;2022-09-12T02:21:37;4.30;;;2.23;;
21825;SDS011;11075;47.944;11.776;2022-09-12T02:24:09;3.90;;;2.07;;
21825;SDS011;11075;47.944;11.776;2022-09-12T02:26:41;4.17;;;2.27;;
21825;SDS011;11075;47.944;11.776;2022-09-12T02:29:13;14.20;;;3.10;;
21825;SDS011;11075;47.944;11.776;2022-09-12T02:31:43;5.83;;;2.20;;
21825;SDS011;11075;47.944;11.776;2022-09-12T02:39:38;1.90;;;1.70;;
21825;SDS011;11075;47.944;11.776;2022-09-12T02:42:10;2.17;;;1.50;;
21825;SDS011;11075;47.944;11.776;2022-09-12T02:44:38;2.57;;;2.00;;
21825;SDS011;11075;47.944;11.776;2022-09-12T02:47:14;5.47;;;2.00;;
21825;SDS011;11075;47.944;11.776;2022-09-12T02:49:48;5.43;;;2.00;;
21825;SDS011;11075;47.944;11.776;2022-09-12T02:52:15;3.20;;;2.23;;
21825;SDS011;11075;47.944;11.776;2022-09-12T02:54:42;2.50;;;1.90;;
21825;SDS011;11075;47.944;11.776;2022-09-12T02:57:16;2.87;;;2.10;;
21825;SDS011;11075;47.944;11.776;2022-09-12T02:59:48;2.47;;;2.03;;
21825;SDS011;11075;47.944;11.776;2022-09-12T03:05:42;6.17;;;2.17;;
21825;SDS011;11075;47.944;11.776;2022-09-12T03:18:18;4.40;;;2.30;;
21825;SDS011;11075;47.944;11.776;2022-09-12T03:21:06;2.00;;;1.50;;
21825;SDS011;11075;47.944;11.776;2022-09-12T03:23:54;2.43;;;1.60;;
21825;SDS011;11075;47.944;11.776;2022-09-12T03:26:52;2.93;;;1.70;;
21825;SDS011;11075;47.944;11.776;2022-09-12T03:29:24;2.60;;;2.13;;
21825;SDS011;11075;47.944;11.776;2022-09-12T03:31:54;2.17;;;1.70;;
21825;SDS011;11075;47.944;11.776;2022-09-12T03:34:23;4.97;;;2.23;;
21825;SDS011;11075;47.944;11.776;2022-09-12T03:36:52;1.93;;;1.53;;
21825;SDS011;11075;47.944;11.776;2022-09-12T03:39:21;3.47;;;2.07;;
21825;SDS011;11075;47.944;11.776;2022-09-12T03:41:50;3.17;;;1.70;;
21825;SDS011;11075;47.944;11.776;2022-09-12T03:44:17;2.63;;;2.10;;
21825;SDS011;11075;47.944;11.776;2022-09-12T03:46:44;5.23;;;1.97;;
21825;SDS011;11075;47.944;11.776;2022-09-12T03:49:11;3.07;;;2.00;;
21825;SDS011;11075;47.944;11.776;2022-09-12T03:51:38;2.53;;;1.90;;
21825;SDS011;11075;47.944;11.776;2022-09-12T03:54:05;5.93;;;1.80;;
21825;SDS011;11075;47.944;11.776;2022-09-12T03:56:32;4.27;;;1.87;;
21825;SDS011;11075;47.944;11.776;2022-09-12T03:58:59;3.90;;;2.10;;
21825;SDS011;11075;47.944;11.776;2022-09-12T04:01:26;2.60;;;1.80;;
21825;SDS011;11075;47.944;11.776;2022-09-12T04:03:53;4.23;;;1.80;;
21825;SDS011;11075;47.944;11.776;2022-09-12T04:06:21;5.20;;;2.33;;
21825;SDS011;11075;47.944;11.776;2022-09-12T04:08:49;2.77;;;2.00;;
21825;SDS011;11075;47.944;11.776;2022-09-12T04:11:18;3.00;;;1.90;;
21825;SDS011;11075;47.944;11.776;2022-09-12T04:13:46;2.27;;;1.73;;
21825;SDS011;11075;47.944;11.776;2022-09-12T04:16:13;2.10;;;1.80;;
21825;SDS011;11075;47.944;11.776;2022-09-12T04:18:42;2.60;;;1.70;;
21825;SDS011;11075;47.944;11.776;2022-09-12T04:21:10;5.23;;;1.50;;
21825;SDS011;11075;47.944;11.776;2022-09-12T04:23:39;1.90;;;1.80;;
21825;SDS011;11075;47.944;11.776;2022-09-12T04:26:07;6.20;;;2.13;;
21825;SDS011;11075;47.944;11.776;2022-09-12T04:28:34;3.43;;;1.97;;
21825;SDS011;11075;47.944;11.776;2022-09-12T04:31:04;3.63;;;1.90;;
21825;SDS011;11075;47.944;11.776;2022-09-12T04:33:33;13.70;;;2.70;;
21825;SDS011;11075;47.944;11.776;2022-09-12T04:36:04;4.60;;;1.90;;
21825;SDS011;11075;47.944;11.776;2022-09-12T04:38:33;2.83;;;1.87;;
21825;SDS011;11075;47.944;11.776;2022-09-12T04:41:11;2.57;;;2.37;;
21825;SDS011;11075;47.944;11.776;2022-09-12T04:43:37;2.97;;;2.03;;
21825;SDS011;11075;47.944;11.776;2022-09-12T04:46:08;3.67;;;1.70;;
21825;SDS011;11075;47.944;11.776;2022-09-12T04:48:37;1.87;;;1.70;;
21825;SDS011;11075;47.944;11.776;2022-09-12T04:51:11;4.20;;;2.07;;
21825;SDS011;11075;47.944;11.776;2022-09-12T04:53:41;3.10;;;1.93;;
21825;SDS011;11075;47.944;11.776;2022-09-12T04:56:09;2.00;;;1.80;;
21825;SDS011;11075;47.944;11.776;2022-09-12T04:58:37;1.63;;;1.53;;
21825;SDS011;11075;47.944;11.776;2022-09-12T05:01:05;2.73;;;2.10;;
21825;SDS011;11075;47.944;11.776;2022-09-12T05:03:33;6.33;;;2.60;;
21825;SDS011;11075;47.944;11.776;2022-09-12T05:06:04;2.50;;;2.30;;
21825;SDS011;11075;47.944;11.776;2022-09-12T05:08:33;1.97;;;1.57;;
21825;SDS011;11075;47.944;11.776;2022-09-12T05:11:05;2.63;;;1.90;;
21825;SDS011;11075;47.944;11.776;2022-09-12T05:13:39;2.80;;;2.00;;
21825;SDS011;11075;47.944;11.776;2022-09-12T05:16:06;3.80;;;1.90;;
21825;SDS011;11075;47.944;11.776;2022-09-12T05:18:35;2.10;;;1.90;;
21825;SDS011;11075;47.944;11.776;2022-09-12T05:21:03;4.10;;;2.80;;
21825;SDS011;11075;47.944;11.776;2022-09-12T05:23:31;2.47;;;2.17;;
21825;SDS011;11075;47.944;11.776;2022-09-12T05:25:59;4.80;;;2.60;;
21825;SDS011;11075;47.944;11.776;2022-09-12T05:28:28;2.77;;;2.10;;
21825;SDS011;11075;47.944;11.776;2022-09-12T05:31:01;2.77;;;1.73;;
21825;SDS011;11075;47.944;11.776;2022-09-12T05:33:28;1.97;;;1.77;;
21825;SDS011;11075;47.944;11.776;2022-09-12T05:35:55;3.80;;;1.80;;
21825;SDS011;11075;47.944;11.776;2022-09-12T05:38:22;4.20;;;1.80;;
21825;SDS011;11075;47.944;11.776;2022-09-12T05:41:15;5.80;;;1.80;;
21825;SDS011;11075;47.944;11.776;2022-09-12T05:43:50;1.27;;;1.17;;
21825;SDS011;11075;47.944;11.776;2022-09-12T05:46:22;2.33;;;1.60;;
21825;SDS011;11075;47.944;11.776;2022-09-12T05:48:51;1.57;;;1.47;;
21825;SDS011;11075;47.944;11.776;2022-09-12T05:51:25;2.43;;;1.90;;
21825;SDS011;11075;47.944;11.776;2022-09-12T05:53:55;1.63;;;1.53;;
21825;SDS011;11075;47.944;11.776;2022-09-12T05:56:25;3.40;;;1.67;;
21825;SDS011;11075;47.944;11.776;2022-09-12T05:58:57;2.83;;;1.90;;
21825;SDS011;11075;47.944;11.776;2022-09-12T06:01:27;5.13;;;1.50;;
21825;SDS011;11075;47.944;11.776;2022-09-12T06:03:57;1.83;;;1.70;;
21825;SDS011;11075;47.944;11.776;2022-09-12T06:06:27;1.80;;;1.70;;
21825;SDS011;11075;47.944;11.776;2022-09-12T06:08:55;4.83;;;1.70;;
21825;SDS011;11075;47.944;11.776;2022-09-12T06:11:25;2.73;;;1.47;;
21825;SDS011;11075;47.944;11.776;2022-09-12T06:13:57;2.37;;;1.73;;
21825;SDS011;11075;47.944;11.776;2022-09-12T06:16:25;1.50;;;1.40;;
21825;SDS011;11075;47.944;11.776;2022-09-12T06:18:54;1.47;;;1.37;;
21825;SDS011;11075;47.944;11.776;2022-09-12T06:21:23;1.10;;;1.00;;
21825;SDS011;11075;47.944;11.776;2022-09-12T06:23:54;3.73;;;1.07;;
21825;SDS011;11075;47.944;11.776;2022-09-12T06:26:22;1.27;;;1.10;;
21825;SDS011;11075;47.944;11.776;2022-09-12T06:28:51;1.20;;;1.10;;
21825;SDS011;11075;47.944;11.776;2022-09-12T06:31:20;5.13;;;1.50;;
21825;SDS011;11075;47.944;11.776;2022-09-12T06:33:51;3.35;;;1.55;;
21825;SDS011;11075;47.944;11.776;2022-09-12T06:38:47;2.65;;;1.30;;
21825;SDS011;11075;47.944;11.776;2022-09-12T06:41:20;1.58;;;1.48;;
21825;SDS011;11075;47.944;11.776;2022-09-12T06:43:47;2.40;;;1.08;;
21825;SDS011;11075;47.944;11.776;2022-09-12T06:46:14;1.10;;;1.00;;
21825;SDS011;11075;47.944;11.776;2022-09-12T06:48:40;1.45;;;1.20;;
21825;SDS011;11075;47.944;11.776;2022-09-12T06:51:12;5.80;;;1.40;;
21825;SDS011;11075;47.944;11.776;2022-09-12T06:53:40;3.33;;;1.05;;
21825;SDS011;11075;47.944;11.776;2022-09-12T06:56:09;1.45;;;1.13;;
21825;SDS011;11075;47.944;11.776;2022-09-12T06:58:47;1.95;;;1.00;;
21825;SDS011;11075;47.944;11.776;2022-09-12T07:03:47;5.00;;;1.60;;
21825;SDS011;11075;47.944;11.776;2022-09-12T07:06:19;1.30;;;1.20;;
21825;SDS011;11075;47.944;11.776;2022-09-12T07:08:49;10.10;;;1.92;;
21825;SDS011;11075;47.944;11.776;2022-09-12T07:11:20;5.43;;;1.60;;
21825;SDS011;11075;47.944;11.776;2022-09-12T07:13:49;5.50;;;1.15;;
21825;SDS011;11075;47.944;11.776;2022-09-12T07:16:18;2.10;;;1.30;;
21825;SDS011;11075;47.944;11.776;2022-09-12T07:19:04;1.38;;;1.27;;
21825;SDS011;11075;47.944;11.776;2022-09-12T07:21:33;1.67;;;0.90;;
21825;SDS011;11075;47.944;11.776;2022-09-12T07:24:06;4.70;;;1.30;;
21825;SDS011;11075;47.944;11.776;2022-09-12T07:26:34;3.10;;;1.08;;
21825;SDS011;11075;47.944;11.776;2022-09-12T07:29:02;1.67;;;0.73;;
21825;SDS011;11075;47.944;11.776;2022-09-12T07:31:50;3.15;;;1.00;;
21825;SDS011;11075;47.944;11.776;2022-09-12T07:34:17;1.20;;;1.10;;
21825;SDS011;11075;47.944;11.776;2022-09-12T07:36:44;1.52;;;0.88;;
21825;SDS011;11075;47.944;11.776;2022-09-12T07:39:10;2.95;;;1.00;;
21825;SDS011;11075;47.944;11.776;2022-09-12T07:41:37;2.80;;;1.27;;
21825;SDS011;11075;47.944;11.776;2022-09-12T07:44:04;6.38;;;1.60;;
21825;SDS011;11075;47.944;11.776;2022-09-12T07:46:34;1.38;;;0.98;;
21825;SDS011;11075;47.944;11.776;2022-09-12T07:49:01;1.13;;;1.02;;
21825;SDS011;11075;47.944;11.776;2022-09-12T07:51:28;1.42;;;1.33;;
21825;SDS011;11075;47.944;11.776;2022-09-12T07:53:56;1.40;;;1.30;;
21825;SDS011;11075;47.944;11.776;2022-09-12T07:56:24;1.67;;;1.38;;
21825;SDS011;11075;47.944;11.776;2022-09-12T07:58:58;1.83;;;1.35;;
21825;SDS011;11075;47.944;11.776;2022-09-12T08:01:25;2.00;;;1.50;;
21825;SDS011;11075;47.944;11.776;2022-09-12T08:03:53;1.55;;;1.45;;
21825;SDS011;11075;47.944;11.776;2022-09-12T08:06:23;1.67;;;1.20;;
21825;SDS011;11075;47.944;11.776;2022-09-12T08:08:53;2.92;;;1.20;;
21825;SDS011;11075;47.944;11.776;2022-09-12T08:11:21;2.38;;;1.52;;
21825;SDS011;11075;47.944;11.776;2022-09-12T08:13:49;1.98;;;1.77;;
21825;SDS011;11075;47.944;11.776;2022-09-12T08:16:22;1.63;;;1.52;;
21825;SDS011;11075;47.944;11.776;2022-09-12T08:18:51;5.53;;;1.90;;
21825;SDS011;11075;47.944;11.776;2022-09-12T08:21:19;1.83;;;1.73;;
21825;SDS011;11075;47.944;11.776;2022-09-12T08:24:00;1.88;;;1.77;;
21825;SDS011;11075;47.944;11.776;2022-09-12T08:26:29;2.75;;;2.20;;
21825;SDS011;11075;47.944;11.776;2022-09-12T08:28:57;2.67;;;1.90;;
21825;SDS011;11075;47.944;11.776;2022-09-12T08:31:24;1.58;;;1.48;;
21825;SDS011;11075;47.944;11.776;2022-09-12T08:33:56;3.58;;;1.75;;
21825;SDS011;11075;47.944;11.776;2022-09-12T08:36:24;2.35;;;1.60;;
21825;SDS011;11075;47.944;11.776;2022-09-12T08:38:53;3.67;;;1.95;;
21825;SDS011;11075;47.944;11.776;2022-09-12T08:41:37;2.22;;;1.75;;
21825;SDS011;11075;47.944;11.776;2022-09-12T08:55:25;2.20;;;1.77;;
21825;SDS011;11075;47.944;11.776;2022-09-12T08:57:57;2.22;;;1.58;;
21825;SDS011;11075;47.944;11.776;2022-09-12T09:00:37;1.70;;;1.48;;
21825;SDS011;11075;47.944;11.776;2022-09-12T09:03:34;2.03;;;1.58;;
21825;SDS011;11075;47.944;11.776;2022-09-12T09:11:44;1.40;;;1.30;;
21825;SDS011;11075;47.944;11.776;2022-09-12T09:17:22;2.45;;;1.20;;
21825;SDS011;11075;47.944;11.776;2022-09-12T09:28:57;2.38;;;1.10;;
21825;SDS011;11075;47.944;11.776;2022-09-12T09:31:22;1.48;;;1.10;;
21825;SDS011;11075;47.944;11.776;2022-09-12T09:33:53;1.25;;;1.17;;
21825;SDS011;11075;47.944;11.776;2022-09-12T09:36:21;1.40;;;1.00;;
21825;SDS011;11075;47.944;11.776;2022-09-12T09:41:32;1.23;;;1.13;;
21825;SDS011;11075;47.944;11.776;2022-09-12T09:44:03;0.95;;;0.90;;
21825;SDS011;11075;47.944;11.776;2022-09-12T09:46:30;4.43;;;1.02;;
21825;SDS011;11075;47.944;11.776;2022-09-12T09:48:58;1.92;;;1.00;;
21825;SDS011;11075;47.944;11.776;2022-09-12T09:51:32;0.90;;;0.90;;
21825;SDS011;11075;47.944;11.776;2022-09-12T09:54:04;1.92;;;0.98;;
21825;SDS011;11075;47.944;11.776;2022-09-12T09:56:42;2.88;;;1.00;;
21825;SDS011;11075;47.944;11.776;2022-09-12T09:59:11;2.03;;;1.10;;
21825;SDS011;11075;47.944;11.776;2022-09-12T10:01:58;1.17;;;1.08;;
21825;SDS011;11075;47.944;11.776;2022-09-12T10:04:35;1.33;;;0.80;;
21825;SDS011;11075;47.944;11.776;2022-09-12T10:07:16;1.10;;;1.00;;
21825;SDS011;11075;47.944;11.776;2022-09-12T10:12:41;0.70;;;0.70;;
21825;SDS011;11075;47.944;11.776;2022-09-12T10:15:18;0.90;;;0.90;;
21825;SDS011;11075;47.944;11.776;2022-09-12T10:17:52;0.80;;;0.80;;
21825;SDS011;11075;47.944;11.776;2022-09-12T10:26:02;1.60;;;0.70;;
21825;SDS011;11075;47.944;11.776;2022-09-12T10:28:37;0.88;;;0.82;;
21825;SDS011;11075;47.944;11.776;2022-09-12T10:31:07;4.25;;;2.35;;
21825;SDS011;11075;47.944;11.776;2022-09-12T10:33:41;1.58;;;0.80;;
21825;SDS011;11075;47.944;11.776;2022-09-12T10:36:10;0.90;;;0.80;;
21825;SDS011;11075;47.944;11.776;2022-09-12T10:38:37;1.23;;;0.60;;
21825;SDS011;11075;47.944;11.776;2022-09-12T10:41:08;0.60;;;0.60;;
21825;SDS011;11075;47.944;11.776;2022-09-12T10:43:40;1.50;;;0.63;;
21825;SDS011;11075;47.944;11.776;2022-09-12T10:48:41;1.65;;;0.65;;
21825;SDS011;11075;47.944;11.776;2022-09-12T10:51:25;3.08;;;0.80;;
21825;SDS011;11075;47.944;11.776;2022-09-12T10:53:57;0.68;;;0.65;;
21825;SDS011;11075;47.944;11.776;2022-09-12T10:56:35;1.05;;;0.90;;
21825;SDS011;11075;47.944;11.776;2022-09-12T11:02:00;1.40;;;0.70;;
21825;SDS011;11075;47.944;11.776;2022-09-12T11:29:47;0.70;;;0.70;;
21825;SDS011;11075;47.944;11.776;2022-09-12T11:40:37;1.20;;;1.10;;
21825;SDS011;11075;47.944;11.776;2022-09-12T11:45:43;1.52;;;0.80;;
21825;SDS011;11075;47.944;11.776;2022-09-12T11:48:26;1.40;;;1.30;;
21825;SDS011;11075;47.944;11.776;2022-09-12T11:51:04;1.52;;;1.35;;
21825;SDS011;11075;47.944;11.776;2022-09-12T11:53:40;1.40;;;1.00;;
21825;SDS011;11075;47.944;11.776;2022-09-12T11:56:18;1.25;;;1.15;;
21825;SDS011;11075;47.944;11.776;2022-09-12T11:58:48;1.38;;;1.27;;
21825;SDS011;11075;47.944;11.776;2022-09-12T12:01:25;1.42;;;0.90;;
21825;SDS011;11075;47.944;11.776;2022-09-12T12:03:57;1.05;;;0.95;;
21825;SDS011;11075;47.944;11.776;2022-09-12T12:07:14;1.50;;;1.10;;
21825;SDS011;11075;47.944;11.776;2022-09-12T12:09:29;1.00;;;0.90;;
21825;SDS011;11075;47.944;11.776;2022-09-12T12:11:57;0.80;;;0.80;;
21825;SDS011;11075;47.944;11.776;2022-09-12T12:14:52;2.88;;;0.90;;
21825;SDS011;11075;47.944;11.776;2022-09-12T12:17:19;0.80;;;0.80;;
21825;SDS011;11075;47.944;11.776;2022-09-12T12:19:55;2.65;;;0.90;;
21825;SDS011;11075;47.944;11.776;2022-09-12T12:22:31;1.05;;;0.90;;
21825;SDS011;11075;47.944;11.776;2022-09-12T12:33:03;1.00;;;0.90;;
21825;SDS011;11075;47.944;11.776;2022-09-12T12:38:38;1.33;;;0.90;;
21825;SDS011;11075;47.944;11.776;2022-09-12T12:43:43;3.20;;;1.00;;
21825;SDS011;11075;47.944;11.776;2022-09-12T12:46:18;2.55;;;0.80;;
21825;SDS011;11075;47.944;11.776;2022-09-12T12:51:37;1.17;;;1.08;;
21825;SDS011;11075;47.944;11.776;2022-09-12T12:54:28;1.75;;;0.70;;
21825;SDS011;11075;47.944;11.776;2022-09-12T12:56:59;3.88;;;1.00;;
21825;SDS011;11075;47.944;11.776;2022-09-12T12:59:28;1.02;;;0.93;;
21825;SDS011;11075;47.944;11.776;2022-09-12T13:01:55;1.27;;;0.90;;
21825;SDS011;11075;47.944;11.776;2022-09-12T13:04:26;1.02;;;0.88;;
21825;SDS011;11075;47.944;11.776;2022-09-12T13:06:57;1.77;;;1.00;;
21825;SDS011;11075;47.944;11.776;2022-09-12T13:09:36;1.58;;;1.20;;
21825;SDS011;11075;47.944;11.776;2022-09-12T13:12:09;2.53;;;0.98;;
21825;SDS011;11075;47.944;11.776;2022-09-12T13:14:48;2.22;;;0.90;;
21825;SDS011;11075;47.944;11.776;2022-09-12T13:17:42;0.73;;;0.73;;
21825;SDS011;11075;47.944;11.776;2022-09-12T13:22:55;1.20;;;0.70;;
21825;SDS011;11075;47.944;11.776;2022-09-12T13:25:30;1.65;;;1.00;;
21825;SDS011;11075;47.944;11.776;2022-09-12T13:28:01;2.38;;;0.80;;
21825;SDS011;11075;47.944;11.776;2022-09-12T13:30:32;2.13;;;0.65;;
21825;SDS011;11075;47.944;11.776;2022-09-12T13:33:04;1.30;;;0.85;;
21825;SDS011;11075;47.944;11.776;2022-09-12T13:43:54;1.08;;;0.70;;
21825;SDS011;11075;47.944;11.776;2022-09-12T13:46:25;0.93;;;0.82;;
21825;SDS011;11075;47.944;11.776;2022-09-12T13:48:58;1.40;;;0.70;;
21825;SDS011;11075;47.944;11.776;2022-09-12T13:51:28;0.90;;;0.80;;
21825;SDS011;11075;47.944;11.776;2022-09-12T13:53:58;1.88;;;0.68;;
21825;SDS011;11075;47.944;11.776;2022-09-12T13:56:28;0.90;;;0.60;;
21825;SDS011;11075;47.944;11.776;2022-09-12T13:58:57;0.90;;;0.77;;
21825;SDS011;11075;47.944;11.776;2022-09-12T14:01:36;0.75;;;0.75;;
21825;SDS011;11075;47.944;11.776;2022-09-12T14:07:01;1.13;;;0.88;;
21825;SDS011;11075;47.944;11.776;2022-09-12T14:09:37;3.03;;;0.50;;
21825;SDS011;11075;47.944;11.776;2022-09-12T14:12:49;1.08;;;0.90;;
21825;SDS011;11075;47.944;11.776;2022-09-12T14:14:59;3.67;;;0.85;;
21825;SDS011;11075;47.944;11.776;2022-09-12T14:20:06;1.60;;;0.77;;
21825;SDS011;11075;47.944;11.776;2022-09-12T14:22:39;0.57;;;0.50;;
21825;SDS011;11075;47.944;11.776;2022-09-12T14:25:09;1.77;;;0.60;;
21825;SDS011;11075;47.944;11.776;2022-09-12T14:27:43;1.42;;;0.73;;
21825;SDS011;11075;47.944;11.776;2022-09-12T14:30:27;0.98;;;0.73;;
21825;SDS011;11075;47.944;11.776;2022-09-12T14:35:35;0.60;;;0.60;;
21825;SDS011;11075;47.944;11.776;2022-09-12T14:38:29;0.98;;;0.70;;
21825;SDS011;11075;47.944;11.776;2022-09-12T14:41:04;1.23;;;0.80;;
21825;SDS011;11075;47.944;11.776;2022-09-12T14:43:34;0.98;;;0.70;;
21825;SDS011;11075;47.944;11.776;2022-09-12T14:46:05;0.70;;;0.70;;
21825;SDS011;11075;47.944;11.776;2022-09-12T14:48:51;0.70;;;0.70;;
21825;SDS011;11075;47.944;11.776;2022-09-12T14:51:27;0.77;;;0.77;;
21825;SDS011;11075;47.944;11.776;2022-09-12T14:53:59;0.82;;;0.80;;
21825;SDS011;11075;47.944;11.776;2022-09-12T14:56:42;0.60;;;0.60;;
21825;SDS011;11075;47.944;11.776;2022-09-12T15:04:40;2.85;;;0.90;;
21825;SDS011;11075;47.944;11.776;2022-09-12T15:07:15;1.17;;;0.85;;
21825;SDS011;11075;47.944;11.776;2022-09-12T15:09:56;1.70;;;0.88;;
21825;SDS011;11075;47.944;11.776;2022-09-12T15:12:24;1.42;;;0.88;;
21825;SDS011;11075;47.944;11.776;2022-09-12T15:14:51;1.88;;;1.48;;
21825;SDS011;11075;47.944;11.776;2022-09-12T15:17:18;2.47;;;1.25;;
21825;SDS011;11075;47.944;11.776;2022-09-12T15:19:44;2.22;;;1.88;;
21825;SDS011;11075;47.944;11.776;2022-09-12T15:22:12;1.88;;;0.85;;
21825;SDS011;11075;47.944;11.776;2022-09-12T15:24:39;2.15;;;1.30;;
21825;SDS011;11075;47.944;11.776;2022-09-12T15:27:11;1.80;;;1.40;;
21825;SDS011;11075;47.944;11.776;2022-09-12T15:29:38;1.77;;;1.05;;
21825;SDS011;11075;47.944;11.776;2022-09-12T15:32:05;1.48;;;1.15;;
21825;SDS011;11075;47.944;11.776;2022-09-12T15:34:40;2.42;;;1.42;;
21825;SDS011;11075;47.944;11.776;2022-09-12T15:37:13;1.23;;;0.93;;
21825;SDS011;11075;47.944;11.776;2022-09-12T15:39:47;0.90;;;0.90;;
21825;SDS011;11075;47.944;11.776;2022-09-12T15:42:15;1.33;;;1.00;;
21825;SDS011;11075;47.944;11.776;2022-09-12T15:44:43;1.50;;;1.13;;
21825;SDS011;11075;47.944;11.776;2022-09-12T15:47:10;1.75;;;1.00;;
21825;SDS011;11075;47.944;11.776;2022-09-12T15:49:39;4.18;;;1.42;;
21825;SDS011;11075;47.944;11.776;2022-09-12T15:52:14;2.83;;;0.90;;
21825;SDS011;11075;47.944;11.776;2022-09-12T15:54:42;0.82;;;0.80;;
21825;SDS011;11075;47.944;11.776;2022-09-12T15:57:09;1.05;;;1.00;;
21825;SDS011;11075;47.944;11.776;2022-09-12T15:59:36;4.70;;;1.17;;
21825;SDS011;11075;47.944;11.776;2022-09-12T16:02:02;1.17;;;1.08;;
21825;SDS011;11075;47.944;11.776;2022-09-12T16:04:29;1.00;;;0.90;;
21825;SDS011;11075;47.944;11.776;2022-09-12T16:06:56;2.60;;;1.20;;
21825;SDS011;11075;47.944;11.776;2022-09-12T16:09:23;1.02;;;1.02;;
21825;SDS011;11075;47.944;11.776;2022-09-12T16:11:50;3.30;;;1.35;;
21825;SDS011;11075;47.944;11.776;2022-09-12T16:14:17;1.30;;;1.10;;
21825;SDS011;11075;47.944;11.776;2022-09-12T16:19:37;3.85;;;1.35;;
21825;SDS011;11075;47.944;11.776;2022-09-12T16:22:10;2.90;;;1.73;;
21825;SDS011;11075;47.944;11.776;2022-09-12T16:24:37;1.67;;;1.35;;
21825;SDS011;11075;47.944;11.776;2022-09-12T16:27:05;1.67;;;1.30;;
21825;SDS011;11075;47.944;11.776;2022-09-12T16:29:32;5.78;;;1.58;;
21825;SDS011;11075;47.944;11.776;2022-09-12T16:31:59;5.95;;;1.40;;
21825;SDS011;11075;47.944;11.776;2022-09-12T16:34:26;2.35;;;1.52;;
21825;SDS011;11075;47.944;11.776;2022-09-12T16:36:53;3.50;;;1.38;;
21825;SDS011;11075;47.944;11.776;2022-09-12T16:39:20;6.00;;;1.38;;
21825;SDS011;11075;47.944;11.776;2022-09-12T16:44:32;2.90;;;1.23;;
21825;SDS011;11075;47.944;11.776;2022-09-12T16:46:59;5.30;;;1.60;;
21825;SDS011;11075;47.944;11.776;2022-09-12T16:49:26;5.10;;;1.50;;
21825;SDS011;11075;47.944;11.776;2022-09-12T16:51:53;4.30;;;1.45;;
21825;SDS011;11075;47.944;11.776;2022-09-12T16:54:19;2.58;;;1.52;;
21825;SDS011;11075;47.944;11.776;2022-09-12T16:56:46;4.53;;;1.85;;
21825;SDS011;11075;47.944;11.776;2022-09-12T16:59:14;5.07;;;1.92;;
21825;SDS011;11075;47.944;11.776;2022-09-12T17:01:42;3.75;;;1.80;;
21825;SDS011;11075;47.944;11.776;2022-09-12T17:04:10;7.05;;;1.98;;
21825;SDS011;11075;47.944;11.776;2022-09-12T17:06:37;8.15;;;1.83;;
21825;SDS011;11075;47.944;11.776;2022-09-12T17:09:04;1.85;;;1.70;;
21825;SDS011;11075;47.944;11.776;2022-09-12T17:11:35;3.67;;;1.83;;
21825;SDS011;11075;47.944;11.776;2022-09-12T17:14:05;2.28;;;1.85;;
21825;SDS011;11075;47.944;11.776;2022-09-12T17:16:34;1.83;;;1.73;;
21825;SDS011;11075;47.944;11.776;2022-09-12T17:19:03;1.75;;;1.63;;
21825;SDS011;11075;47.944;11.776;2022-09-12T17:21:31;3.60;;;1.77;;
21825;SDS011;11075;47.944;11.776;2022-09-12T17:23:58;4.43;;;1.73;;
21825;SDS011;11075;47.944;11.776;2022-09-12T17:26:25;3.05;;;1.80;;
21825;SDS011;11075;47.944;11.776;2022-09-12T17:28:52;3.13;;;1.58;;
21825;SDS011;11075;47.944;11.776;2022-09-12T17:31:19;4.95;;;2.75;;
21825;SDS011;11075;47.944;11.776;2022-09-12T17:33:46;4.38;;;2.13;;
21825;SDS011;11075;47.944;11.776;2022-09-12T17:36:14;2.17;;;2.00;;
21825;SDS011;11075;47.944;11.776;2022-09-12T17:38:44;2.20;;;1.60;;
21825;SDS011;11075;47.944;11.776;2022-09-12T17:41:12;2.42;;;1.85;;